Time;durP1;ratioP1;P1;durP2;ratioP2;P2;SDS_P1;SDS_P2;PMS_P1;PMS_P2;Temp;Humidity;BMP_temperature;BMP_pressure;BME280_temperature;BME280_humidity;BME280_pressure;Samples;Min_cycle;Max_cycle;Signal;HPM_P1;HPM_P2
2023/03/07 00:00:11;;;;;;;33.80;12.37;;;;;;;;;;5096068;28;20477;-69
2023/03/07 00:02:38;;;;;;;25.37;12.00;;;;;;;;;;5096088;28;20451;-69
2023/03/07 00:05:05;;;;;;;23.67;12.63;;;;;;;;;;5095623;28;20451;-69
2023/03/07 00:07:32;;;;;;;23.87;12.93;;;;;;;;;;5095876;28;20451;-69
2023/03/07 00:10:00;;;;;;;27.80;12.97;;;;;;;;;;5095594;28;20473;-69
2023/03/07 00:12:27;;;;;;;24.40;12.03;;;;;;;;;;5095815;28;20451;-69
2023/03/07 00:14:57;;;;;;;33.13;12.30;;;;;;;;;;5095722;28;20458;-69
2023/03/07 00:17:24;;;;;;;28.20;12.50;;;;;;;;;;5095929;28;20482;-68
2023/03/07 00:19:51;;;;;;;23.40;11.90;;;;;;;;;;5095349;28;20454;-69
2023/03/07 00:22:18;;;;;;;18.60;10.90;;;;;;;;;;5095356;28;20453;-69
2023/03/07 00:24:45;;;;;;;23.50;12.10;;;;;;;;;;5095180;28;20446;-69
2023/03/07 00:27:12;;;;;;;19.53;12.00;;;;;;;;;;5095229;28;20450;-69
2023/03/07 00:29:39;;;;;;;31.90;13.13;;;;;;;;;;5095206;28;20447;-68
2023/03/07 00:32:08;;;;;;;22.83;12.03;;;;;;;;;;5095353;28;20455;-69
2023/03/07 00:34:38;;;;;;;25.40;12.13;;;;;;;;;;5095147;28;20457;-68
2023/03/07 00:37:05;;;;;;;22.07;11.57;;;;;;;;;;5094972;28;20471;-69
2023/03/07 00:39:32;;;;;;;20.13;10.83;;;;;;;;;;5095405;28;20430;-69
2023/03/07 00:41:59;;;;;;;23.10;11.60;;;;;;;;;;5095308;28;20438;-69
2023/03/07 00:44:28;;;;;;;23.33;10.87;;;;;;;;;;5095013;28;20450;-68
2023/03/07 00:46:55;;;;;;;28.43;12.23;;;;;;;;;;5095130;28;20488;-68
2023/03/07 00:49:24;;;;;;;20.50;12.07;;;;;;;;;;5094820;28;20458;-69
2023/03/07 00:51:51;;;;;;;20.77;11.77;;;;;;;;;;5094689;28;20466;-69
2023/03/07 00:54:18;;;;;;;28.13;13.47;;;;;;;;;;5094632;28;20450;-69
2023/03/07 00:56:45;;;;;;;22.60;11.10;;;;;;;;;;5094813;28;20847;-68
2023/03/07 00:59:12;;;;;;;22.83;11.60;;;;;;;;;;5094911;28;20457;-69
2023/03/07 01:01:39;;;;;;;19.20;10.93;;;;;;;;;;5094553;28;20479;-69
2023/03/07 01:04:07;;;;;;;27.70;13.60;;;;;;;;;;5094801;28;20891;-69
2023/03/07 01:06:35;;;;;;;22.37;12.00;;;;;;;;;;5094698;28;20457;-69
2023/03/07 01:09:06;;;;;;;24.70;13.10;;;;;;;;;;5094581;28;20924;-69
2023/03/07 01:11:34;;;;;;;18.40;11.90;;;;;;;;;;5094549;28;20513;-69
2023/03/07 01:14:02;;;;;;;21.67;12.17;;;;;;;;;;5094566;28;20458;-68
2023/03/07 01:16:30;;;;;;;18.47;11.50;;;;;;;;;;5094425;28;20451;-69
2023/03/07 01:18:57;;;;;;;19.83;10.43;;;;;;;;;;5094402;28;20959;-69
2023/03/07 01:21:25;;;;;;;21.00;11.33;;;;;;;;;;5094339;28;20473;-69
2023/03/07 01:23:54;;;;;;;23.17;10.53;;;;;;;;;;5093776;28;20462;-68
2023/03/07 01:26:22;;;;;;;23.43;11.73;;;;;;;;;;5094355;28;20450;-69
2023/03/07 01:28:50;;;;;;;21.77;12.53;;;;;;;;;;5093989;28;20450;-69
2023/03/07 01:31:18;;;;;;;22.90;12.67;;;;;;;;;;5093934;28;20840;-69
2023/03/07 01:33:45;;;;;;;19.00;10.77;;;;;;;;;;5094183;28;20839;-69
2023/03/07 01:36:17;;;;;;;24.37;11.67;;;;;;;;;;5094128;28;20459;-69
2023/03/07 01:38:44;;;;;;;19.03;11.20;;;;;;;;;;5093797;28;20491;-68
2023/03/07 01:41:13;;;;;;;17.97;11.17;;;;;;;;;;5093623;28;20483;-69
2023/03/07 01:43:40;;;;;;;20.37;11.57;;;;;;;;;;5094047;28;20812;-69
2023/03/07 01:46:25;;;;;;;20.50;11.30;;;;;;;;;;5093720;28;20450;-69
2023/03/07 01:48:54;;;;;;;20.50;10.50;;;;;;;;;;5093988;28;20550;-68
2023/03/07 01:51:22;;;;;;;19.07;12.23;;;;;;;;;;5093637;28;20470;-68
2023/03/07 01:53:51;;;;;;;25.30;10.23;;;;;;;;;;5093934;28;20446;-69
2023/03/07 01:56:20;;;;;;;16.93;11.50;;;;;;;;;;5093553;28;20453;-69
2023/03/07 01:58:47;;;;;;;20.80;10.67;;;;;;;;;;5093727;28;20482;-69
2023/03/07 02:01:15;;;;;;;20.80;10.87;;;;;;;;;;5093602;28;20470;-69
2023/03/07 02:03:44;;;;;;;24.07;11.50;;;;;;;;;;5093767;28;20545;-69
2023/03/07 02:06:12;;;;;;;27.43;13.27;;;;;;;;;;5093675;28;20458;-69
2023/03/07 02:08:39;;;;;;;20.10;12.30;;;;;;;;;;5093639;28;20450;-69
2023/03/07 02:11:08;;;;;;;16.00;9.53;;;;;;;;;;5093390;28;20470;-70
2023/03/07 02:13:36;;;;;;;19.03;10.33;;;;;;;;;;5093868;28;20556;-69
2023/03/07 02:16:04;;;;;;;22.70;11.70;;;;;;;;;;5093530;28;20969;-69
2023/03/07 02:18:32;;;;;;;23.17;11.97;;;;;;;;;;5093551;28;20494;-69
2023/03/07 02:21:08;;;;;;;19.90;11.30;;;;;;;;;;5093127;28;20994;-69
2023/03/07 02:23:39;;;;;;;22.93;13.23;;;;;;;;;;5093383;28;20450;-69
2023/03/07 02:26:09;;;;;;;26.20;14.33;;;;;;;;;;5093255;28;20438;-69
2023/03/07 02:28:38;;;;;;;21.90;12.80;;;;;;;;;;5093597;28;20793;-69
2023/03/07 02:31:07;;;;;;;21.30;12.00;;;;;;;;;;5093195;28;20478;-69
2023/03/07 02:33:34;;;;;;;20.47;11.67;;;;;;;;;;5093004;28;20462;-69
2023/03/07 02:36:03;;;;;;;19.40;10.90;;;;;;;;;;5094126;28;20454;-69
2023/03/07 02:38:35;;;;;;;26.40;11.27;;;;;;;;;;5097562;28;20509;-69
2023/03/07 02:41:02;;;;;;;24.83;11.67;;;;;;;;;;5097214;28;20494;-69
2023/03/07 02:43:30;;;;;;;28.53;14.80;;;;;;;;;;5097529;28;20446;-69
2023/03/07 02:45:58;;;;;;;22.13;13.50;;;;;;;;;;5097251;28;20457;-69
2023/03/07 02:48:25;;;;;;;17.80;10.13;;;;;;;;;;5097103;28;20450;-69
2023/03/07 02:50:52;;;;;;;20.73;11.60;;;;;;;;;;5097069;28;20473;-69
2023/03/07 02:53:19;;;;;;;28.27;14.87;;;;;;;;;;5097302;28;20446;-69
2023/03/07 02:55:47;;;;;;;24.13;13.07;;;;;;;;;;5097322;28;20495;-69
2023/03/07 02:58:14;;;;;;;22.83;12.07;;;;;;;;;;5096747;28;20483;-69
2023/03/07 03:00:41;;;;;;;20.27;13.00;;;;;;;;;;5097015;28;20473;-69
2023/03/07 03:03:10;;;;;;;20.97;11.70;;;;;;;;;;5097136;28;20446;-69
2023/03/07 03:05:37;;;;;;;20.43;11.20;;;;;;;;;;5097031;28;20522;-69
2023/03/07 03:08:05;;;;;;;24.53;11.30;;;;;;;;;;5096667;28;20445;-69
2023/03/07 03:10:32;;;;;;;22.53;12.30;;;;;;;;;;5096770;28;20980;-69
2023/03/07 03:12:59;;;;;;;19.33;12.27;;;;;;;;;;5096613;28;20449;-69
2023/03/07 03:15:26;;;;;;;26.00;11.90;;;;;;;;;;5096961;28;20793;-69
2023/03/07 03:17:54;;;;;;;21.13;11.50;;;;;;;;;;5096546;28;20482;-69
2023/03/07 03:20:24;;;;;;;20.47;11.73;;;;;;;;;;5096654;28;20925;-69
2023/03/07 03:22:52;;;;;;;20.57;11.90;;;;;;;;;;5097105;28;20920;-69
2023/03/07 03:25:21;;;;;;;19.40;10.33;;;;;;;;;;5096341;28;20450;-69
2023/03/07 03:27:49;;;;;;;18.20;10.60;;;;;;;;;;5096384;28;20455;-69
2023/03/07 03:30:17;;;;;;;19.33;10.00;;;;;;;;;;5096304;28;20825;-69
2023/03/07 03:32:45;;;;;;;20.90;12.23;;;;;;;;;;5096489;28;20442;-69
2023/03/07 03:35:13;;;;;;;49.93;11.87;;;;;;;;;;5096130;28;20446;-69
2023/03/07 03:37:41;;;;;;;22.87;12.20;;;;;;;;;;5096523;28;20990;-69
2023/03/07 03:40:13;;;;;;;24.77;10.83;;;;;;;;;;5096220;28;20478;-69
2023/03/07 03:42:40;;;;;;;18.70;10.80;;;;;;;;;;5096385;28;20863;-69
2023/03/07 03:45:08;;;;;;;20.37;11.30;;;;;;;;;;5096079;28;20447;-69
2023/03/07 03:47:35;;;;;;;19.77;11.03;;;;;;;;;;5095784;28;20443;-68
2023/03/07 03:50:03;;;;;;;20.63;11.20;;;;;;;;;;5095840;28;20475;-69
2023/03/07 03:52:30;;;;;;;16.93;10.00;;;;;;;;;;5096244;28;20878;-69
2023/03/07 03:54:59;;;;;;;25.37;11.83;;;;;;;;;;5095918;28;20462;-69
2023/03/07 03:57:26;;;;;;;22.13;13.20;;;;;;;;;;5096101;28;20446;-69
2023/03/07 03:59:54;;;;;;;15.63;10.07;;;;;;;;;;5095726;28;20529;-69
2023/03/07 04:02:21;;;;;;;19.23;10.93;;;;;;;;;;5095994;28;20818;-69
2023/03/07 04:04:48;;;;;;;20.13;11.13;;;;;;;;;;5095701;28;20561;-69
2023/03/07 04:07:16;;;;;;;22.20;11.60;;;;;;;;;;5096053;28;20939;-69
2023/03/07 04:09:43;;;;;;;21.23;11.93;;;;;;;;;;5095562;28;20453;-70
2023/03/07 04:12:11;;;;;;;21.30;11.23;;;;;;;;;;5095573;28;20451;-69
2023/03/07 04:14:38;;;;;;;18.27;10.60;;;;;;;;;;5095496;28;20451;-69
2023/03/07 04:17:06;;;;;;;21.53;11.33;;;;;;;;;;5095723;28;20446;-69
2023/03/07 04:19:33;;;;;;;17.93;11.00;;;;;;;;;;5095679;28;20489;-69
2023/03/07 04:22:00;;;;;;;15.33;10.03;;;;;;;;;;5095423;28;20447;-69
2023/03/07 04:24:27;;;;;;;15.27;9.87;;;;;;;;;;5095345;28;20803;-69
2023/03/07 04:26:54;;;;;;;25.27;11.07;;;;;;;;;;5095469;28;20447;-69
2023/03/07 04:29:23;;;;;;;17.70;10.40;;;;;;;;;;5095357;28;20443;-69
2023/03/07 04:31:50;;;;;;;20.17;10.30;;;;;;;;;;5095206;28;20470;-69
2023/03/07 04:34:17;;;;;;;19.80;10.47;;;;;;;;;;5095131;28;20451;-69
2023/03/07 04:36:44;;;;;;;22.47;10.00;;;;;;;;;;5095346;28;20459;-69
2023/03/07 04:39:11;;;;;;;21.80;10.70;;;;;;;;;;5094985;28;20482;-69
2023/03/07 04:41:38;;;;;;;15.30;9.07;;;;;;;;;;5094828;28;21021;-69
2023/03/07 04:44:05;;;;;;;20.23;10.00;;;;;;;;;;5095164;28;20458;-69
2023/03/07 04:46:34;;;;;;;20.23;10.27;;;;;;;;;;5095308;28;20820;-69
2023/03/07 04:49:01;;;;;;;17.80;10.80;;;;;;;;;;5095434;28;20443;-69
2023/03/07 04:51:28;;;;;;;15.70;9.90;;;;;;;;;;5094975;28;20809;-69
2023/03/07 04:53:55;;;;;;;20.57;10.57;;;;;;;;;;5094989;28;20461;-69
2023/03/07 04:56:22;;;;;;;24.37;11.77;;;;;;;;;;5094962;28;20939;-69
2023/03/07 04:58:49;;;;;;;19.03;10.30;;;;;;;;;;5094056;28;20471;-69
2023/03/07 05:01:17;;;;;;;20.63;10.63;;;;;;;;;;5094662;28;20948;-69
2023/03/07 05:03:45;;;;;;;19.97;11.27;;;;;;;;;;5094876;28;20451;-69
2023/03/07 05:06:14;;;;;;;14.00;9.07;;;;;;;;;;5094822;28;20950;-69
2023/03/07 05:08:41;;;;;;;19.90;10.20;;;;;;;;;;5090045;28;20456;-69
2023/03/07 05:11:08;;;;;;;18.47;10.53;;;;;;;;;;5073976;28;20471;-68
2023/03/07 05:13:35;;;;;;;17.83;9.50;;;;;;;;;;5074701;28;20455;-68
2023/03/07 05:16:02;;;;;;;15.53;8.70;;;;;;;;;;5088576;28;20455;-68
2023/03/07 05:18:29;;;;;;;17.23;9.63;;;;;;;;;;5085596;28;20800;-69
2023/03/07 05:20:58;;;;;;;17.57;8.40;;;;;;;;;;5094475;28;20835;-69
2023/03/07 05:23:25;;;;;;;15.03;9.17;;;;;;;;;;5093637;28;20447;-68
2023/03/07 05:25:52;;;;;;;19.13;9.27;;;;;;;;;;5094184;28;20454;-68
2023/03/07 05:28:19;;;;;;;14.03;8.67;;;;;;;;;;5094093;28;20431;-69
2023/03/07 05:30:47;;;;;;;19.83;9.10;;;;;;;;;;5094023;28;20836;-69
2023/03/07 05:33:14;;;;;;;18.37;9.87;;;;;;;;;;5093926;28;20462;-69
2023/03/07 05:35:42;;;;;;;18.20;10.63;;;;;;;;;;5094148;28;20447;-69
2023/03/07 05:38:11;;;;;;;18.43;9.03;;;;;;;;;;5093756;28;20523;-68
2023/03/07 05:40:39;;;;;;;18.27;8.50;;;;;;;;;;5093771;28;21003;-69
2023/03/07 05:43:06;;;;;;;16.83;7.80;;;;;;;;;;5094289;28;20454;-69
2023/03/07 05:45:33;;;;;;;16.93;8.17;;;;;;;;;;5094049;28;20478;-68
2023/03/07 05:48:01;;;;;;;15.60;9.00;;;;;;;;;;5094076;28;20530;-68
2023/03/07 05:50:29;;;;;;;10.67;8.47;;;;;;;;;;5093638;28;20490;-69
2023/03/07 05:52:56;;;;;;;16.23;9.80;;;;;;;;;;5094275;28;20461;-68
2023/03/07 05:55:25;;;;;;;20.50;10.83;;;;;;;;;;5093634;28;20457;-69
2023/03/07 05:57:52;;;;;;;16.07;9.23;;;;;;;;;;5093844;28;20458;-69
2023/03/07 06:00:19;;;;;;;20.90;9.73;;;;;;;;;;5093816;28;20475;-69
2023/03/07 06:02:46;;;;;;;14.90;7.93;;;;;;;;;;5093633;28;20446;-68
2023/03/07 06:05:14;;;;;;;15.10;8.63;;;;;;;;;;5093312;28;20457;-68
2023/03/07 06:07:41;;;;;;;14.57;8.60;;;;;;;;;;5093518;28;21011;-69
2023/03/07 06:10:08;;;;;;;14.60;8.50;;;;;;;;;;5093738;28;20467;-69
2023/03/07 06:12:37;;;;;;;13.50;7.80;;;;;;;;;;5093342;28;20453;-69
2023/03/07 06:15:04;;;;;;;14.63;9.03;;;;;;;;;;5093717;28;21171;-69
2023/03/07 06:17:31;;;;;;;16.63;9.70;;;;;;;;;;5093689;28;20961;-69
2023/03/07 06:19:58;;;;;;;17.23;9.40;;;;;;;;;;5093244;28;20490;-68
2023/03/07 06:22:26;;;;;;;16.37;10.20;;;;;;;;;;5093210;28;20454;-69
2023/03/07 06:24:53;;;;;;;21.53;9.80;;;;;;;;;;5093375;28;20507;-69
2023/03/07 06:27:21;;;;;;;19.63;10.20;;;;;;;;;;5093724;28;20485;-69
2023/03/07 06:29:49;;;;;;;15.43;8.47;;;;;;;;;;5093550;28;20458;-69
2023/03/07 06:32:16;;;;;;;15.40;8.30;;;;;;;;;;5093065;28;20461;-69
2023/03/07 06:34:43;;;;;;;14.33;8.80;;;;;;;;;;5093297;28;20458;-68
2023/03/07 06:37:11;;;;;;;16.27;8.73;;;;;;;;;;5093326;28;20454;-69
2023/03/07 06:39:38;;;;;;;19.07;11.60;;;;;;;;;;5093075;28;20589;-68
2023/03/07 06:42:05;;;;;;;16.87;8.80;;;;;;;;;;5093063;28;20458;-68
2023/03/07 06:44:32;;;;;;;16.10;8.70;;;;;;;;;;5093319;28;20940;-69
2023/03/07 06:47:00;;;;;;;16.00;8.40;;;;;;;;;;5093060;28;20442;-68
2023/03/07 06:49:28;;;;;;;27.80;11.80;;;;;;;;;;5093189;28;20453;-69
2023/03/07 06:51:55;;;;;;;16.30;8.80;;;;;;;;;;5093117;28;21003;-69
2023/03/07 06:54:22;;;;;;;19.43;11.10;;;;;;;;;;5093167;28;20453;-69
2023/03/07 06:56:50;;;;;;;21.23;9.27;;;;;;;;;;5093070;28;20951;-69
2023/03/07 06:59:18;;;;;;;13.30;8.47;;;;;;;;;;5093173;28;20493;-68
2023/03/07 07:01:47;;;;;;;14.47;7.87;;;;;;;;;;5093054;28;20979;-68
2023/03/07 07:04:15;;;;;;;17.13;9.60;;;;;;;;;;5092987;28;20943;-68
2023/03/07 07:06:42;;;;;;;19.40;9.93;;;;;;;;;;5093301;28;20462;-68
2023/03/07 07:09:12;;;;;;;15.70;8.17;;;;;;;;;;5093098;28;20846;-68
2023/03/07 07:11:39;;;;;;;13.07;8.27;;;;;;;;;;5092663;28;20473;-68
2023/03/07 07:14:06;;;;;;;12.93;6.97;;;;;;;;;;5092708;28;20965;-68
2023/03/07 07:16:35;;;;;;;18.03;9.80;;;;;;;;;;5092898;28;20458;-68
2023/03/07 07:19:02;;;;;;;13.77;7.80;;;;;;;;;;5092806;28;20941;-69
2023/03/07 07:21:30;;;;;;;14.83;8.87;;;;;;;;;;5092951;28;20478;-68
2023/03/07 07:23:57;;;;;;;13.67;8.00;;;;;;;;;;5096470;28;20457;-69
2023/03/07 07:26:25;;;;;;;14.87;8.57;;;;;;;;;;5096154;28;20446;-69
2023/03/07 07:28:52;;;;;;;14.03;7.40;;;;;;;;;;5096238;28;20446;-69
2023/03/07 07:31:20;;;;;;;15.33;8.60;;;;;;;;;;5096382;28;20470;-69
2023/03/07 07:33:47;;;;;;;14.47;8.37;;;;;;;;;;5096170;28;20482;-69
2023/03/07 07:36:14;;;;;;;12.70;8.83;;;;;;;;;;5096172;28;20445;-69
2023/03/07 07:38:42;;;;;;;17.33;8.47;;;;;;;;;;5096095;28;20482;-69
2023/03/07 07:41:09;;;;;;;12.23;7.70;;;;;;;;;;5095998;28;20478;-69
2023/03/07 07:43:37;;;;;;;16.97;8.30;;;;;;;;;;5096052;28;20457;-69
2023/03/07 07:46:04;;;;;;;16.60;8.33;;;;;;;;;;5096363;28;20454;-69
2023/03/07 07:48:31;;;;;;;16.73;9.17;;;;;;;;;;5096070;28;20454;-69
2023/03/07 07:51:00;;;;;;;16.30;10.20;;;;;;;;;;5096098;28;20479;-69
2023/03/07 07:53:28;;;;;;;16.63;9.50;;;;;;;;;;5096016;28;20500;-68
2023/03/07 07:55:56;;;;;;;13.17;8.03;;;;;;;;;;5095994;28;20442;-69
2023/03/07 07:58:23;;;;;;;13.70;8.30;;;;;;;;;;5095727;28;20451;-69
2023/03/07 08:00:50;;;;;;;18.63;10.70;;;;;;;;;;5095812;28;21001;-69
2023/03/07 08:03:17;;;;;;;17.33;9.03;;;;;;;;;;5095888;28;20446;-69
2023/03/07 08:05:47;;;;;;;19.00;10.43;;;;;;;;;;5095619;28;20974;-69
2023/03/07 08:08:14;;;;;;;18.80;10.30;;;;;;;;;;5095515;28;20880;-69
2023/03/07 08:10:43;;;;;;;15.00;8.80;;;;;;;;;;5095617;28;21001;-69
2023/03/07 08:13:13;;;;;;;19.90;10.40;;;;;;;;;;5095443;28;20542;-69
2023/03/07 08:15:40;;;;;;;15.57;8.73;;;;;;;;;;5095326;28;20447;-69
2023/03/07 08:18:08;;;;;;;12.30;8.57;;;;;;;;;;5095311;28;20447;-69
2023/03/07 08:20:37;;;;;;;14.00;8.77;;;;;;;;;;5095320;28;20518;-69
2023/03/07 08:23:04;;;;;;;13.60;8.50;;;;;;;;;;5095231;28;20951;-69
2023/03/07 08:25:31;;;;;;;18.30;9.20;;;;;;;;;;5095128;28;20450;-69
2023/03/07 08:27:58;;;;;;;20.30;9.80;;;;;;;;;;5095643;28;20451;-69
2023/03/07 08:30:27;;;;;;;13.27;8.77;;;;;;;;;;5095338;28;20467;-69
2023/03/07 08:32:55;;;;;;;17.03;9.80;;;;;;;;;;5092914;28;20458;-69
2023/03/07 08:35:22;;;;;;;9.67;7.73;;;;;;;;;;5092659;28;20458;-69
2023/03/07 08:37:49;;;;;;;16.30;10.23;;;;;;;;;;5093160;28;20542;-69
2023/03/07 08:40:17;;;;;;;15.93;9.67;;;;;;;;;;5093508;28;20540;-69
2023/03/07 08:42:44;;;;;;;16.17;10.23;;;;;;;;;;5093720;28;20447;-68
2023/03/07 08:45:11;;;;;;;15.07;9.77;;;;;;;;;;5093938;28;20819;-69
2023/03/07 08:47:39;;;;;;;16.33;10.20;;;;;;;;;;5093683;28;20824;-69
2023/03/07 08:50:07;;;;;;;13.77;9.43;;;;;;;;;;5093671;28;20470;-69
2023/03/07 08:52:34;;;;;;;16.37;9.77;;;;;;;;;;5093788;28;20469;-69
2023/03/07 08:55:01;;;;;;;15.73;10.50;;;;;;;;;;5093367;28;20453;-69
2023/03/07 08:57:29;;;;;;;17.80;10.67;;;;;;;;;;5093625;28;20473;-69
2023/03/07 08:59:56;;;;;;;18.20;10.03;;;;;;;;;;5093187;28;20490;-69
2023/03/07 09:02:23;;;;;;;16.27;9.00;;;;;;;;;;5093216;28;20985;-69
2023/03/07 09:04:51;;;;;;;12.87;8.33;;;;;;;;;;5093224;28;20458;-69
2023/03/07 09:07:19;;;;;;;17.83;9.67;;;;;;;;;;5093497;28;20451;-69
2023/03/07 09:09:46;;;;;;;19.97;10.53;;;;;;;;;;5093029;28;20443;-69
2023/03/07 09:12:13;;;;;;;13.93;10.30;;;;;;;;;;5093153;28;20459;-69
2023/03/07 09:14:40;;;;;;;16.23;9.37;;;;;;;;;;5093059;28;20458;-67
2023/03/07 09:17:08;;;;;;;13.30;9.63;;;;;;;;;;5092887;28;20462;-69
2023/03/07 09:19:35;;;;;;;16.00;9.57;;;;;;;;;;5092772;28;20536;-70
2023/03/07 09:22:03;;;;;;;18.00;9.20;;;;;;;;;;5093356;28;20954;-70
2023/03/07 09:24:31;;;;;;;17.13;10.20;;;;;;;;;;5093300;28;20431;-69
2023/03/07 09:26:58;;;;;;;15.27;8.57;;;;;;;;;;5092746;28;20446;-69
2023/03/07 09:29:25;;;;;;;14.63;8.70;;;;;;;;;;5092895;28;20447;-69
2023/03/07 09:31:52;;;;;;;15.97;8.80;;;;;;;;;;5093016;28;20475;-70
2023/03/07 09:34:19;;;;;;;19.10;10.20;;;;;;;;;;5092822;28;20490;-69
2023/03/07 09:36:47;;;;;;;13.90;9.87;;;;;;;;;;5093234;28;20813;-69
2023/03/07 09:39:15;;;;;;;17.63;9.63;;;;;;;;;;5086866;28;20449;-70
2023/03/07 09:41:57;;;;;;;16.30;9.43;;;;;;;;;;5092895;28;20490;-69
2023/03/07 09:44:33;;;;;;;14.77;8.27;;;;;;;;;;5066590;28;20458;-69
2023/03/07 09:47:10;;;;;;;14.63;9.20;;;;;;;;;;5072653;28;20427;-69
2023/03/07 09:49:41;;;;;;;17.17;10.50;;;;;;;;;;5072207;28;20840;-69
2023/03/07 09:52:12;;;;;;;15.43;8.70;;;;;;;;;;5072221;28;20444;-69
2023/03/07 09:54:43;;;;;;;13.83;9.07;;;;;;;;;;5087139;28;20474;-69
2023/03/07 09:57:14;;;;;;;13.77;9.50;;;;;;;;;;5093011;28;20907;-70
2023/03/07 09:59:44;;;;;;;14.17;9.90;;;;;;;;;;5092554;28;20494;-70
2023/03/07 10:02:15;;;;;;;15.00;8.53;;;;;;;;;;5092432;28;20443;-69
2023/03/07 10:04:47;;;;;;;16.03;10.67;;;;;;;;;;5092226;28;20430;-69
2023/03/07 10:07:15;;;;;;;12.33;9.67;;;;;;;;;;5092586;28;20444;-69
2023/03/07 10:09:44;;;;;;;17.07;10.83;;;;;;;;;;5092079;28;20443;-69
2023/03/07 10:12:27;;;;;;;13.13;8.00;;;;;;;;;;5092370;28;20483;-69
2023/03/07 10:15:07;;;;;;;15.13;9.00;;;;;;;;;;5092022;28;20462;-69
2023/03/07 10:17:42;;;;;;;14.47;9.23;;;;;;;;;;5092080;28;20446;-69
2023/03/07 10:20:15;;;;;;;18.70;10.23;;;;;;;;;;5092117;28;20489;-69
2023/03/07 10:22:44;;;;;;;14.03;9.27;;;;;;;;;;5092402;28;20478;-69
2023/03/07 10:25:19;;;;;;;13.87;9.00;;;;;;;;;;5092665;28;20457;-69
2023/03/07 10:27:47;;;;;;;12.07;8.93;;;;;;;;;;5092699;28;20434;-69
2023/03/07 10:30:16;;;;;;;13.23;8.73;;;;;;;;;;5092689;28;20519;-69
2023/03/07 10:32:45;;;;;;;14.53;8.57;;;;;;;;;;5093192;28;20865;-69
2023/03/07 10:35:17;;;;;;;11.23;7.90;;;;;;;;;;5093391;28;20956;-69
2023/03/07 10:37:49;;;;;;;14.67;8.93;;;;;;;;;;5093139;28;20936;-72
2023/03/07 10:40:20;;;;;;;25.97;9.87;;;;;;;;;;5093004;28;20491;-69
2023/03/07 10:42:47;;;;;;;17.17;10.20;;;;;;;;;;5093385;28;20435;-69
2023/03/07 10:45:15;;;;;;;13.57;8.37;;;;;;;;;;5093048;28;20451;-70
2023/03/07 10:47:42;;;;;;;14.23;8.63;;;;;;;;;;5093339;28;20462;-69
2023/03/07 10:50:20;;;;;;;13.80;9.90;;;;;;;;;;5093037;28;20467;-69
2023/03/07 10:52:49;;;;;;;17.03;9.63;;;;;;;;;;5093471;28;20446;-69
2023/03/07 10:55:40;;;;;;;11.33;8.23;;;;;;;;;;5092932;28;20458;-69
2023/03/07 10:58:14;;;;;;;14.67;8.90;;;;;;;;;;5095881;28;20529;-69
2023/03/07 11:00:43;;;;;;;15.03;9.13;;;;;;;;;;5097160;28;20496;-69
2023/03/07 11:03:22;;;;;;;13.57;9.17;;;;;;;;;;5097054;28;20461;-69
2023/03/07 11:05:49;;;;;;;13.07;8.83;;;;;;;;;;5097033;28;20434;-69
2023/03/07 11:08:21;;;;;;;14.60;9.80;;;;;;;;;;5096933;28;20450;-69
2023/03/07 11:10:50;;;;;;;13.93;8.90;;;;;;;;;;5097016;28;20467;-72
2023/03/07 11:13:18;;;;;;;15.90;10.93;;;;;;;;;;5096930;28;20451;-69
2023/03/07 11:15:45;;;;;;;13.30;9.60;;;;;;;;;;5096714;28;20537;-69
2023/03/07 11:18:25;;;;;;;12.40;9.63;;;;;;;;;;5096868;28;20825;-69
2023/03/07 11:20:53;;;;;;;16.00;10.03;;;;;;;;;;5095369;28;20490;-69
2023/03/07 11:23:22;;;;;;;11.53;7.97;;;;;;;;;;5095238;28;20434;-69
2023/03/07 11:25:51;;;;;;;11.73;8.70;;;;;;;;;;5095790;28;20563;-69
2023/03/07 11:28:36;;;;;;;14.30;8.40;;;;;;;;;;5095663;28;20424;-69
2023/03/07 11:31:09;;;;;;;15.67;7.87;;;;;;;;;;5095501;28;20900;-69
2023/03/07 11:33:44;;;;;;;15.83;9.67;;;;;;;;;;5095439;28;20439;-69
2023/03/07 11:36:14;;;;;;;14.97;9.43;;;;;;;;;;5095285;28;20929;-69
2023/03/07 11:38:46;;;;;;;16.20;11.30;;;;;;;;;;5095307;28;20792;-69
2023/03/07 11:41:20;;;;;;;20.20;13.27;;;;;;;;;;5094979;28;20500;-69
2023/03/07 11:43:54;;;;;;;18.30;11.50;;;;;;;;;;5094864;28;20462;-71
2023/03/07 11:46:27;;;;;;;13.60;9.97;;;;;;;;;;5095044;28;20462;-69
2023/03/07 11:49:01;;;;;;;12.43;8.90;;;;;;;;;;5095234;28;20799;-69
2023/03/07 11:51:38;;;;;;;15.87;10.40;;;;;;;;;;5095067;28;20459;-69
2023/03/07 11:54:13;;;;;;;13.00;8.60;;;;;;;;;;5095255;28;20450;-69
2023/03/07 11:56:44;;;;;;;11.33;8.40;;;;;;;;;;5095446;28;20533;-69
2023/03/07 11:59:34;;;;;;;14.00;8.97;;;;;;;;;;5096243;28;20439;-69
2023/03/07 12:02:02;;;;;;;17.00;9.50;;;;;;;;;;5096388;28;20841;-69
2023/03/07 12:04:48;;;;;;;14.57;10.33;;;;;;;;;;5096072;28;20935;-69
2023/03/07 12:07:20;;;;;;;12.20;8.60;;;;;;;;;;5096070;28;20461;-69
2023/03/07 12:09:51;;;;;;;15.90;9.67;;;;;;;;;;5095715;28;20427;-69
2023/03/07 12:12:29;;;;;;;12.13;9.70;;;;;;;;;;5096037;28;20892;-69
2023/03/07 12:15:01;;;;;;;12.67;9.53;;;;;;;;;;5095962;28;20446;-70
2023/03/07 12:17:36;;;;;;;14.97;8.93;;;;;;;;;;5095885;28;20442;-69
2023/03/07 12:20:12;;;;;;;16.40;9.73;;;;;;;;;;5093674;28;20477;-69
2023/03/07 12:22:44;;;;;;;14.97;9.40;;;;;;;;;;5094353;28;20438;-70
2023/03/07 12:25:25;;;;;;;15.93;9.93;;;;;;;;;;5094286;28;20904;-69
2023/03/07 12:28:01;;;;;;;14.90;9.53;;;;;;;;;;5094490;28;20443;-69
2023/03/07 12:30:32;;;;;;;11.20;8.27;;;;;;;;;;5094673;28;20462;-72
2023/03/07 12:32:59;;;;;;;10.30;8.50;;;;;;;;;;5094727;28;20451;-72
2023/03/07 12:35:29;;;;;;;13.13;9.50;;;;;;;;;;5095583;28;20819;-73
2023/03/07 12:37:59;;;;;;;13.63;9.70;;;;;;;;;;5095546;28;20912;-73
2023/03/07 12:40:29;;;;;;;13.27;10.03;;;;;;;;;;5095101;28;20498;-72
2023/03/07 12:43:01;;;;;;;12.90;8.87;;;;;;;;;;5095370;28;20435;-72
2023/03/07 12:45:29;;;;;;;12.20;8.83;;;;;;;;;;5095146;28;20537;-72
2023/03/07 12:48:00;;;;;;;10.87;8.47;;;;;;;;;;5094988;28;20819;-73
2023/03/07 12:50:29;;;;;;;13.07;9.60;;;;;;;;;;5095224;28;20462;-72
2023/03/07 12:52:58;;;;;;;12.90;9.00;;;;;;;;;;5094941;28;20443;-72
2023/03/07 12:55:27;;;;;;;12.50;8.60;;;;;;;;;;5094870;28;20447;-72
2023/03/07 12:58:01;;;;;;;13.90;10.20;;;;;;;;;;5094815;28;20446;-70
2023/03/07 13:00:31;;;;;;;13.77;9.40;;;;;;;;;;5094970;28;20494;-70
2023/03/07 13:03:00;;;;;;;17.20;10.77;;;;;;;;;;5095008;28;20794;-70
2023/03/07 13:05:28;;;;;;;17.30;9.73;;;;;;;;;;5094660;28;20447;-70
2023/03/07 13:07:56;;;;;;;14.27;9.70;;;;;;;;;;5094571;28;20447;-70
2023/03/07 13:10:24;;;;;;;14.57;9.50;;;;;;;;;;5094548;28;20471;-70
2023/03/07 13:12:51;;;;;;;16.13;9.23;;;;;;;;;;5094488;28;20462;-70
2023/03/07 13:15:37;;;;;;;16.23;9.23;;;;;;;;;;5094460;28;20450;-69
2023/03/07 13:18:25;;;;;;;13.30;9.20;;;;;;;;;;5094781;28;20462;-70
2023/03/07 13:21:09;;;;;;;18.27;10.00;;;;;;;;;;5093750;28;21001;-69
2023/03/07 13:23:36;;;;;;;17.53;10.17;;;;;;;;;;5094275;28;20446;-69
2023/03/07 13:26:05;;;;;;;18.77;10.10;;;;;;;;;;5094569;28;20474;-69
2023/03/07 13:28:40;;;;;;;16.30;10.10;;;;;;;;;;5094387;28;20454;-69
2023/03/07 13:31:25;;;;;;;14.67;9.37;;;;;;;;;;5094331;28;20858;-69
2023/03/07 13:33:54;;;;;;;15.57;9.67;;;;;;;;;;5094191;28;20461;-69
2023/03/07 13:36:42;;;;;;;19.47;10.30;;;;;;;;;;5094161;28;20446;-69
2023/03/07 13:39:24;;;;;;;19.50;9.23;;;;;;;;;;5087622;28;20465;-69
2023/03/07 13:41:51;;;;;;;13.40;9.60;;;;;;;;;;5093605;28;20500;-69
2023/03/07 13:44:29;;;;;;;14.57;9.00;;;;;;;;;;5094201;28;20958;-69
2023/03/07 13:47:00;;;;;;;16.77;9.27;;;;;;;;;;5093901;28;20534;-69
2023/03/07 13:49:38;;;;;;;15.70;9.03;;;;;;;;;;5094176;28;20792;-69
2023/03/07 13:52:28;;;;;;;20.83;10.17;;;;;;;;;;5093972;28;20434;-69
2023/03/07 13:54:56;;;;;;;14.70;9.17;;;;;;;;;;5093967;28;20439;-69
2023/03/07 13:57:25;;;;;;;12.47;8.97;;;;;;;;;;5094003;28;20447;-69
2023/03/07 13:59:52;;;;;;;17.83;8.83;;;;;;;;;;5094025;28;20438;-69
2023/03/07 14:02:22;;;;;;;20.37;9.50;;;;;;;;;;5094131;28;20490;-69
2023/03/07 14:04:53;;;;;;;12.07;7.57;;;;;;;;;;5093709;28;20952;-69
2023/03/07 14:07:24;;;;;;;13.83;8.27;;;;;;;;;;5093500;28;20443;-69
2023/03/07 14:09:52;;;;;;;14.10;9.73;;;;;;;;;;5093735;28;20981;-69
2023/03/07 14:12:25;;;;;;;15.47;9.10;;;;;;;;;;5093754;28;20812;-69
2023/03/07 14:15:04;;;;;;;14.87;9.80;;;;;;;;;;5093410;28;20441;-69
2023/03/07 14:17:40;;;;;;;21.33;11.53;;;;;;;;;;5093440;28;20488;-70
2023/03/07 14:20:16;;;;;;;18.83;10.70;;;;;;;;;;5093565;28;20477;-69
2023/03/07 14:22:51;;;;;;;14.50;8.80;;;;;;;;;;5093445;28;20482;-69
2023/03/07 14:25:19;;;;;;;18.73;9.30;;;;;;;;;;5093632;28;20438;-70
2023/03/07 14:27:54;;;;;;;21.30;10.30;;;;;;;;;;5093055;28;20467;-69
2023/03/07 14:30:22;;;;;;;17.10;10.80;;;;;;;;;;5092760;28;21033;-70
2023/03/07 14:32:50;;;;;;;20.13;9.73;;;;;;;;;;5092481;28;20450;-69
2023/03/07 14:38:16;;;;;;;15.40;8.93;;;;;;;;;;5111726;27;20650;-70